sensor_id;sensor_type;location;lat;lon;timestamp;P1;durP1;ratioP1;P2;durP2;ratioP2
59998;SDS011;45859;51.378;6.736;2023-04-25T00:01:16;12.87;;;4.33;;
59998;SDS011;45859;51.378;6.736;2023-04-25T00:03:42;9.13;;;3.50;;
59998;SDS011;45859;51.378;6.736;2023-04-25T00:06:08;18.43;;;4.57;;
59998;SDS011;45859;51.378;6.736;2023-04-25T00:08:34;7.17;;;4.07;;
59998;SDS011;45859;51.378;6.736;2023-04-25T00:11:00;8.83;;;2.80;;
59998;SDS011;45859;51.378;6.736;2023-04-25T00:13:26;9.40;;;2.57;;
59998;SDS011;45859;51.378;6.736;2023-04-25T00:18:30;7.23;;;2.50;;
59998;SDS011;45859;51.378;6.736;2023-04-25T00:20:58;9.07;;;3.10;;
59998;SDS011;45859;51.378;6.736;2023-04-25T00:23:23;3.23;;;1.83;;
59998;SDS011;45859;51.378;6.736;2023-04-25T00:25:50;5.57;;;2.00;;
59998;SDS011;45859;51.378;6.736;2023-04-25T00:28:16;8.90;;;3.00;;
59998;SDS011;45859;51.378;6.736;2023-04-25T00:30:42;11.20;;;3.27;;
59998;SDS011;45859;51.378;6.736;2023-04-25T00:33:08;8.20;;;2.90;;
59998;SDS011;45859;51.378;6.736;2023-04-25T00:35:34;6.47;;;1.87;;
59998;SDS011;45859;51.378;6.736;2023-04-25T00:38:00;10.57;;;3.83;;
59998;SDS011;45859;51.378;6.736;2023-04-25T00:40:27;11.67;;;3.17;;
59998;SDS011;45859;51.378;6.736;2023-04-25T00:42:52;10.13;;;3.40;;
59998;SDS011;45859;51.378;6.736;2023-04-25T00:45:18;7.50;;;3.40;;
59998;SDS011;45859;51.378;6.736;2023-04-25T00:47:45;4.10;;;2.03;;
59998;SDS011;45859;51.378;6.736;2023-04-25T00:50:12;10.80;;;2.93;;
59998;SDS011;45859;51.378;6.736;2023-04-25T00:52:40;9.87;;;3.83;;
59998;SDS011;45859;51.378;6.736;2023-04-25T00:55:08;11.90;;;3.85;;
59998;SDS011;45859;51.378;6.736;2023-04-25T00:57:35;3.87;;;1.57;;
59998;SDS011;45859;51.378;6.736;2023-04-25T01:00:02;5.47;;;2.17;;
59998;SDS011;45859;51.378;6.736;2023-04-25T01:02:30;4.97;;;2.30;;
59998;SDS011;45859;51.378;6.736;2023-04-25T01:04:58;10.47;;;3.53;;
59998;SDS011;45859;51.378;6.736;2023-04-25T01:07:24;7.17;;;3.23;;
59998;SDS011;45859;51.378;6.736;2023-04-25T01:09:51;11.80;;;3.60;;
59998;SDS011;45859;51.378;6.736;2023-04-25T01:12:17;13.63;;;2.47;;
59998;SDS011;45859;51.378;6.736;2023-04-25T01:14:43;6.87;;;2.80;;
59998;SDS011;45859;51.378;6.736;2023-04-25T01:17:09;4.37;;;2.57;;
59998;SDS011;45859;51.378;6.736;2023-04-25T01:19:35;16.40;;;6.83;;
59998;SDS011;45859;51.378;6.736;2023-04-25T01:22:01;9.17;;;2.10;;
59998;SDS011;45859;51.378;6.736;2023-04-25T01:24:27;2.27;;;1.23;;
59998;SDS011;45859;51.378;6.736;2023-04-25T01:26:53;3.37;;;1.63;;
59998;SDS011;45859;51.378;6.736;2023-04-25T01:29:21;4.33;;;1.77;;
59998;SDS011;45859;51.378;6.736;2023-04-25T01:31:47;5.33;;;2.23;;
59998;SDS011;45859;51.378;6.736;2023-04-25T01:34:14;3.30;;;1.80;;
59998;SDS011;45859;51.378;6.736;2023-04-25T01:36:40;8.47;;;3.03;;
59998;SDS011;45859;51.378;6.736;2023-04-25T01:39:06;5.50;;;2.40;;
59998;SDS011;45859;51.378;6.736;2023-04-25T01:41:32;7.70;;;3.20;;
59998;SDS011;45859;51.378;6.736;2023-04-25T01:43:59;3.83;;;1.93;;
59998;SDS011;45859;51.378;6.736;2023-04-25T01:46:25;5.00;;;2.20;;
59998;SDS011;45859;51.378;6.736;2023-04-25T01:48:51;6.63;;;2.37;;
59998;SDS011;45859;51.378;6.736;2023-04-25T01:51:17;4.77;;;1.60;;
59998;SDS011;45859;51.378;6.736;2023-04-25T01:53:43;8.43;;;2.37;;
59998;SDS011;45859;51.378;6.736;2023-04-25T01:56:09;8.40;;;2.83;;
59998;SDS011;45859;51.378;6.736;2023-04-25T01:58:35;4.33;;;1.97;;
59998;SDS011;45859;51.378;6.736;2023-04-25T02:01:00;6.77;;;2.20;;
59998;SDS011;45859;51.378;6.736;2023-04-25T02:03:26;3.67;;;1.87;;
59998;SDS011;45859;51.378;6.736;2023-04-25T02:05:52;4.83;;;2.03;;
59998;SDS011;45859;51.378;6.736;2023-04-25T02:08:17;6.17;;;1.90;;
59998;SDS011;45859;51.378;6.736;2023-04-25T02:10:43;7.57;;;2.10;;
59998;SDS011;45859;51.378;6.736;2023-04-25T02:13:09;4.07;;;1.70;;
59998;SDS011;45859;51.378;6.736;2023-04-25T02:15:35;2.33;;;1.40;;
59998;SDS011;45859;51.378;6.736;2023-04-25T02:18:01;2.50;;;1.90;;
59998;SDS011;45859;51.378;6.736;2023-04-25T02:20:28;7.10;;;2.40;;
59998;SDS011;45859;51.378;6.736;2023-04-25T02:22:55;4.83;;;1.90;;
59998;SDS011;45859;51.378;6.736;2023-04-25T02:25:21;6.13;;;1.73;;
59998;SDS011;45859;51.378;6.736;2023-04-25T02:27:47;7.27;;;1.90;;
59998;SDS011;45859;51.378;6.736;2023-04-25T02:30:13;6.07;;;2.43;;
59998;SDS011;45859;51.378;6.736;2023-04-25T02:32:39;6.40;;;1.83;;
59998;SDS011;45859;51.378;6.736;2023-04-25T02:35:06;4.13;;;1.63;;
59998;SDS011;45859;51.378;6.736;2023-04-25T02:37:35;5.83;;;2.23;;
59998;SDS011;45859;51.378;6.736;2023-04-25T02:40:03;7.63;;;1.63;;
59998;SDS011;45859;51.378;6.736;2023-04-25T02:42:29;6.80;;;1.63;;
59998;SDS011;45859;51.378;6.736;2023-04-25T02:44:55;5.43;;;2.00;;
59998;SDS011;45859;51.378;6.736;2023-04-25T02:47:21;8.17;;;2.13;;
59998;SDS011;45859;51.378;6.736;2023-04-25T02:49:47;6.03;;;2.00;;
59998;SDS011;45859;51.378;6.736;2023-04-25T02:52:12;6.53;;;1.90;;
59998;SDS011;45859;51.378;6.736;2023-04-25T02:54:39;7.97;;;2.47;;
59998;SDS011;45859;51.378;6.736;2023-04-25T02:57:05;4.17;;;1.77;;
59998;SDS011;45859;51.378;6.736;2023-04-25T02:59:31;9.40;;;2.67;;
59998;SDS011;45859;51.378;6.736;2023-04-25T03:01:57;6.87;;;2.97;;
59998;SDS011;45859;51.378;6.736;2023-04-25T03:04:23;10.80;;;2.17;;
59998;SDS011;45859;51.378;6.736;2023-04-25T03:06:50;6.80;;;2.13;;
59998;SDS011;45859;51.378;6.736;2023-04-25T03:09:16;7.57;;;2.03;;
59998;SDS011;45859;51.378;6.736;2023-04-25T03:11:41;2.47;;;1.23;;
59998;SDS011;45859;51.378;6.736;2023-04-25T03:14:08;7.30;;;2.53;;
59998;SDS011;45859;51.378;6.736;2023-04-25T03:16:34;9.10;;;2.47;;
59998;SDS011;45859;51.378;6.736;2023-04-25T03:19:00;8.20;;;2.37;;
59998;SDS011;45859;51.378;6.736;2023-04-25T03:21:26;3.40;;;1.60;;
59998;SDS011;45859;51.378;6.736;2023-04-25T03:23:52;6.83;;;2.07;;
59998;SDS011;45859;51.378;6.736;2023-04-25T03:26:18;8.27;;;2.37;;
59998;SDS011;45859;51.378;6.736;2023-04-25T03:28:44;6.47;;;2.50;;
59998;SDS011;45859;51.378;6.736;2023-04-25T03:31:10;5.33;;;1.80;;
59998;SDS011;45859;51.378;6.736;2023-04-25T03:33:36;9.47;;;2.30;;
59998;SDS011;45859;51.378;6.736;2023-04-25T03:36:01;5.23;;;2.33;;
59998;SDS011;45859;51.378;6.736;2023-04-25T03:38:27;10.77;;;2.33;;
59998;SDS011;45859;51.378;6.736;2023-04-25T03:40:53;9.43;;;1.70;;
59998;SDS011;45859;51.378;6.736;2023-04-25T03:43:21;7.97;;;2.53;;
59998;SDS011;45859;51.378;6.736;2023-04-25T03:45:46;3.07;;;2.10;;
59998;SDS011;45859;51.378;6.736;2023-04-25T03:48:13;10.77;;;2.63;;
59998;SDS011;45859;51.378;6.736;2023-04-25T03:50:39;7.17;;;2.90;;
59998;SDS011;45859;51.378;6.736;2023-04-25T03:53:04;6.63;;;2.67;;
59998;SDS011;45859;51.378;6.736;2023-04-25T03:55:30;8.57;;;2.70;;
59998;SDS011;45859;51.378;6.736;2023-04-25T03:57:57;8.83;;;2.13;;
59998;SDS011;45859;51.378;6.736;2023-04-25T04:00:23;10.07;;;2.10;;
59998;SDS011;45859;51.378;6.736;2023-04-25T04:02:49;5.80;;;1.33;;
59998;SDS011;45859;51.378;6.736;2023-04-25T04:05:15;7.67;;;2.50;;
59998;SDS011;45859;51.378;6.736;2023-04-25T04:07:41;8.90;;;2.63;;
59998;SDS011;45859;51.378;6.736;2023-04-25T04:10:08;10.73;;;1.83;;
59998;SDS011;45859;51.378;6.736;2023-04-25T04:12:34;3.13;;;0.97;;
59998;SDS011;45859;51.378;6.736;2023-04-25T04:15:00;7.03;;;2.37;;
59998;SDS011;45859;51.378;6.736;2023-04-25T04:17:28;10.70;;;2.60;;
59998;SDS011;45859;51.378;6.736;2023-04-25T04:19:54;3.70;;;1.63;;
59998;SDS011;45859;51.378;6.736;2023-04-25T04:22:20;9.93;;;2.60;;
59998;SDS011;45859;51.378;6.736;2023-04-25T04:24:46;7.10;;;2.33;;
59998;SDS011;45859;51.378;6.736;2023-04-25T04:27:12;9.87;;;2.13;;
59998;SDS011;45859;51.378;6.736;2023-04-25T04:29:38;8.97;;;1.67;;
59998;SDS011;45859;51.378;6.736;2023-04-25T04:32:03;5.07;;;2.13;;
59998;SDS011;45859;51.378;6.736;2023-04-25T04:34:29;13.47;;;2.67;;
59998;SDS011;45859;51.378;6.736;2023-04-25T04:36:56;11.73;;;2.07;;
59998;SDS011;45859;51.378;6.736;2023-04-25T04:39:22;7.93;;;1.97;;
59998;SDS011;45859;51.378;6.736;2023-04-25T04:41:47;9.50;;;2.43;;
59998;SDS011;45859;51.378;6.736;2023-04-25T04:44:13;9.17;;;2.10;;
59998;SDS011;45859;51.378;6.736;2023-04-25T04:46:39;6.53;;;2.40;;
59998;SDS011;45859;51.378;6.736;2023-04-25T04:49:09;6.20;;;2.15;;
59998;SDS011;45859;51.378;6.736;2023-04-25T04:51:37;12.00;;;2.77;;
59998;SDS011;45859;51.378;6.736;2023-04-25T04:54:03;11.67;;;3.07;;
59998;SDS011;45859;51.378;6.736;2023-04-25T04:56:29;5.77;;;2.43;;
59998;SDS011;45859;51.378;6.736;2023-04-25T04:58:58;16.20;;;2.40;;
59998;SDS011;45859;51.378;6.736;2023-04-25T05:01:24;8.73;;;1.83;;
59998;SDS011;45859;51.378;6.736;2023-04-25T05:03:50;4.70;;;1.90;;
59998;SDS011;45859;51.378;6.736;2023-04-25T05:06:16;12.47;;;3.23;;
59998;SDS011;45859;51.378;6.736;2023-04-25T05:08:44;10.63;;;2.33;;
59998;SDS011;45859;51.378;6.736;2023-04-25T05:11:10;10.70;;;3.07;;
59998;SDS011;45859;51.378;6.736;2023-04-25T05:13:36;10.93;;;2.67;;
59998;SDS011;45859;51.378;6.736;2023-04-25T05:16:02;8.33;;;1.93;;
59998;SDS011;45859;51.378;6.736;2023-04-25T05:18:28;8.27;;;2.93;;
59998;SDS011;45859;51.378;6.736;2023-04-25T05:20:53;15.90;;;2.40;;
59998;SDS011;45859;51.378;6.736;2023-04-25T05:23:19;9.97;;;2.73;;
59998;SDS011;45859;51.378;6.736;2023-04-25T05:25:44;12.30;;;2.57;;
59998;SDS011;45859;51.378;6.736;2023-04-25T05:28:11;10.73;;;2.63;;
59998;SDS011;45859;51.378;6.736;2023-04-25T05:30:38;9.77;;;2.23;;
59998;SDS011;45859;51.378;6.736;2023-04-25T05:33:04;6.07;;;2.13;;
59998;SDS011;45859;51.378;6.736;2023-04-25T05:35:30;9.13;;;2.47;;
59998;SDS011;45859;51.378;6.736;2023-04-25T05:37:56;5.70;;;2.10;;
59998;SDS011;45859;51.378;6.736;2023-04-25T05:40:22;14.90;;;3.37;;
59998;SDS011;45859;51.378;6.736;2023-04-25T05:42:47;9.30;;;2.30;;
59998;SDS011;45859;51.378;6.736;2023-04-25T05:45:13;14.93;;;6.07;;
59998;SDS011;45859;51.378;6.736;2023-04-25T05:47:39;9.07;;;2.80;;
59998;SDS011;45859;51.378;6.736;2023-04-25T05:50:04;9.63;;;2.57;;
59998;SDS011;45859;51.378;6.736;2023-04-25T05:52:31;10.73;;;2.87;;
59998;SDS011;45859;51.378;6.736;2023-04-25T05:54:56;5.70;;;2.03;;
59998;SDS011;45859;51.378;6.736;2023-04-25T05:57:26;10.73;;;2.67;;
59998;SDS011;45859;51.378;6.736;2023-04-25T05:59:52;13.45;;;2.67;;
59998;SDS011;45859;51.378;6.736;2023-04-25T06:02:19;15.10;;;3.37;;
59998;SDS011;45859;51.378;6.736;2023-04-25T06:04:46;8.83;;;2.03;;
59998;SDS011;45859;51.378;6.736;2023-04-25T06:07:14;6.60;;;1.87;;
59998;SDS011;45859;51.378;6.736;2023-04-25T06:09:40;11.47;;;5.00;;
59998;SDS011;45859;51.378;6.736;2023-04-25T06:12:05;10.03;;;1.97;;
59998;SDS011;45859;51.378;6.736;2023-04-25T06:14:32;7.40;;;2.10;;
59998;SDS011;45859;51.378;6.736;2023-04-25T06:16:58;11.00;;;2.83;;
59998;SDS011;45859;51.378;6.736;2023-04-25T06:19:24;17.67;;;6.07;;
59998;SDS011;45859;51.378;6.736;2023-04-25T06:21:49;10.47;;;1.93;;
59998;SDS011;45859;51.378;6.736;2023-04-25T06:24:15;4.57;;;1.83;;
59998;SDS011;45859;51.378;6.736;2023-04-25T06:26:41;15.03;;;4.97;;
59998;SDS011;45859;51.378;6.736;2023-04-25T06:29:06;12.97;;;4.97;;
59998;SDS011;45859;51.378;6.736;2023-04-25T06:31:32;13.07;;;4.93;;
59998;SDS011;45859;51.378;6.736;2023-04-25T06:33:58;13.07;;;4.90;;
59998;SDS011;45859;51.378;6.736;2023-04-25T06:36:24;10.83;;;4.37;;
59998;SDS011;45859;51.378;6.736;2023-04-25T06:38:51;14.70;;;4.33;;
59998;SDS011;45859;51.378;6.736;2023-04-25T06:41:20;11.93;;;4.27;;
59998;SDS011;45859;51.378;6.736;2023-04-25T06:43:46;12.07;;;4.00;;
59998;SDS011;45859;51.378;6.736;2023-04-25T06:46:11;13.90;;;4.13;;
59998;SDS011;45859;51.378;6.736;2023-04-25T06:48:37;11.60;;;3.93;;
59998;SDS011;45859;51.378;6.736;2023-04-25T06:51:03;11.67;;;3.97;;
59998;SDS011;45859;51.378;6.736;2023-04-25T06:53:29;10.38;;;3.60;;
59998;SDS011;45859;51.378;6.736;2023-04-25T06:55:55;10.73;;;3.67;;
59998;SDS011;45859;51.378;6.736;2023-04-25T06:58:20;11.13;;;3.60;;
59998;SDS011;45859;51.378;6.736;2023-04-25T07:00:49;15.53;;;4.90;;
59998;SDS011;45859;51.378;6.736;2023-04-25T07:03:15;14.47;;;3.60;;
59998;SDS011;45859;51.378;6.736;2023-04-25T07:05:49;17.37;;;4.57;;
59998;SDS011;45859;51.378;6.736;2023-04-25T07:08:16;11.93;;;3.63;;
59998;SDS011;45859;51.378;6.736;2023-04-25T07:10:45;12.32;;;3.53;;
59998;SDS011;45859;51.378;6.736;2023-04-25T07:13:11;9.98;;;3.20;;
59998;SDS011;45859;51.378;6.736;2023-04-25T07:15:40;8.93;;;2.75;;
59998;SDS011;45859;51.378;6.736;2023-04-25T07:18:07;10.30;;;3.90;;
59998;SDS011;45859;51.378;6.736;2023-04-25T07:20:33;9.52;;;2.95;;
59998;SDS011;45859;51.378;6.736;2023-04-25T07:22:59;8.88;;;3.42;;
59998;SDS011;45859;51.378;6.736;2023-04-25T07:25:25;7.10;;;2.60;;
59998;SDS011;45859;51.378;6.736;2023-04-25T07:27:54;6.53;;;2.20;;
59998;SDS011;45859;51.378;6.736;2023-04-25T07:30:27;10.32;;;2.72;;
59998;SDS011;45859;51.378;6.736;2023-04-25T07:32:53;14.10;;;2.95;;
59998;SDS011;45859;51.378;6.736;2023-04-25T07:35:20;5.97;;;2.42;;
59998;SDS011;45859;51.378;6.736;2023-04-25T07:37:49;8.55;;;2.70;;
59998;SDS011;45859;51.378;6.736;2023-04-25T07:40:18;11.30;;;3.40;;
59998;SDS011;45859;51.378;6.736;2023-04-25T07:42:47;10.38;;;3.05;;
59998;SDS011;45859;51.378;6.736;2023-04-25T07:45:15;8.50;;;3.55;;
59998;SDS011;45859;51.378;6.736;2023-04-25T07:47:41;10.00;;;2.80;;
59998;SDS011;45859;51.378;6.736;2023-04-25T07:50:08;10.25;;;3.00;;
59998;SDS011;45859;51.378;6.736;2023-04-25T07:52:37;9.43;;;3.63;;
59998;SDS011;45859;51.378;6.736;2023-04-25T07:55:07;9.57;;;3.70;;
59998;SDS011;45859;51.378;6.736;2023-04-25T07:57:38;11.30;;;3.60;;
59998;SDS011;45859;51.378;6.736;2023-04-25T08:00:05;10.17;;;3.47;;
59998;SDS011;45859;51.378;6.736;2023-04-25T08:02:34;11.40;;;4.10;;
59998;SDS011;45859;51.378;6.736;2023-04-25T08:05:01;10.67;;;3.50;;
59998;SDS011;45859;51.378;6.736;2023-04-25T08:07:29;13.00;;;3.83;;
59998;SDS011;45859;51.378;6.736;2023-04-25T08:09:58;9.53;;;3.60;;
59998;SDS011;45859;51.378;6.736;2023-04-25T08:12:27;10.07;;;3.17;;
59998;SDS011;45859;51.378;6.736;2023-04-25T08:14:56;9.77;;;3.60;;
59998;SDS011;45859;51.378;6.736;2023-04-25T08:17:23;12.57;;;3.57;;
59998;SDS011;45859;51.378;6.736;2023-04-25T08:19:56;10.50;;;3.30;;
59998;SDS011;45859;51.378;6.736;2023-04-25T08:22:25;11.30;;;3.90;;
59998;SDS011;45859;51.378;6.736;2023-04-25T08:24:57;8.53;;;3.30;;
59998;SDS011;45859;51.378;6.736;2023-04-25T08:27:25;7.23;;;2.87;;
59998;SDS011;45859;51.378;6.736;2023-04-25T08:29:51;5.47;;;2.13;;
59998;SDS011;45859;51.378;6.736;2023-04-25T08:32:18;8.02;;;2.90;;
59998;SDS011;45859;51.378;6.736;2023-04-25T08:34:45;7.85;;;2.67;;
59998;SDS011;45859;51.378;6.736;2023-04-25T08:37:14;8.85;;;2.33;;
59998;SDS011;45859;51.378;6.736;2023-04-25T08:39:40;7.30;;;2.03;;
59998;SDS011;45859;51.378;6.736;2023-04-25T08:42:10;5.72;;;2.40;;
59998;SDS011;45859;51.378;6.736;2023-04-25T08:44:40;6.65;;;2.60;;
59998;SDS011;45859;51.378;6.736;2023-04-25T08:47:16;9.93;;;3.33;;
59998;SDS011;45859;51.378;6.736;2023-04-25T08:49:46;13.27;;;2.75;;
59998;SDS011;45859;51.378;6.736;2023-04-25T08:52:18;14.00;;;2.80;;
59998;SDS011;45859;51.378;6.736;2023-04-25T08:54:48;7.50;;;2.50;;
59998;SDS011;45859;51.378;6.736;2023-04-25T08:57:18;8.07;;;2.80;;
59998;SDS011;45859;51.378;6.736;2023-04-25T08:59:47;7.53;;;2.23;;
59998;SDS011;45859;51.378;6.736;2023-04-25T09:02:14;7.97;;;2.70;;
59998;SDS011;45859;51.378;6.736;2023-04-25T09:07:13;5.00;;;2.30;;
59998;SDS011;45859;51.378;6.736;2023-04-25T09:09:39;9.60;;;2.97;;
59998;SDS011;45859;51.378;6.736;2023-04-25T09:12:05;10.90;;;3.57;;
59998;SDS011;45859;51.378;6.736;2023-04-25T09:14:31;10.00;;;3.60;;
59998;SDS011;45859;51.378;6.736;2023-04-25T09:21:59;4.40;;;2.00;;
59998;SDS011;45859;51.378;6.736;2023-04-25T09:24:33;6.70;;;2.10;;
59998;SDS011;45859;51.378;6.736;2023-04-25T09:27:03;6.13;;;1.65;;
59998;SDS011;45859;51.378;6.736;2023-04-25T09:29:30;6.07;;;1.90;;
59998;SDS011;45859;51.378;6.736;2023-04-25T09:32:10;6.43;;;1.88;;
59998;SDS011;45859;51.378;6.736;2023-04-25T09:34:43;4.55;;;1.50;;
59998;SDS011;45859;51.378;6.736;2023-04-25T09:37:10;5.65;;;1.90;;
59998;SDS011;45859;51.378;6.736;2023-04-25T09:39:36;6.18;;;2.00;;
59998;SDS011;45859;51.378;6.736;2023-04-25T09:42:03;5.57;;;1.77;;
59998;SDS011;45859;51.378;6.736;2023-04-25T09:44:29;7.00;;;2.27;;
59998;SDS011;45859;51.378;6.736;2023-04-25T09:46:56;5.10;;;1.60;;
59998;SDS011;45859;51.378;6.736;2023-04-25T09:49:22;6.57;;;2.03;;
59998;SDS011;45859;51.378;6.736;2023-04-25T09:51:57;5.53;;;1.90;;
59998;SDS011;45859;51.378;6.736;2023-04-25T09:54:24;7.50;;;1.90;;
59998;SDS011;45859;51.378;6.736;2023-04-25T09:56:51;5.90;;;2.23;;
59998;SDS011;45859;51.378;6.736;2023-04-25T09:59:21;6.03;;;1.60;;
59998;SDS011;45859;51.378;6.736;2023-04-25T10:01:50;6.87;;;2.00;;
59998;SDS011;45859;51.378;6.736;2023-04-25T10:04:22;6.77;;;1.63;;
59998;SDS011;45859;51.378;6.736;2023-04-25T10:06:51;6.20;;;1.70;;
59998;SDS011;45859;51.378;6.736;2023-04-25T10:09:20;5.60;;;1.90;;
59998;SDS011;45859;51.378;6.736;2023-04-25T10:11:46;8.50;;;2.07;;
59998;SDS011;45859;51.378;6.736;2023-04-25T10:14:15;5.43;;;1.90;;
59998;SDS011;45859;51.378;6.736;2023-04-25T10:16:42;3.93;;;1.60;;
59998;SDS011;45859;51.378;6.736;2023-04-25T10:19:09;5.03;;;1.30;;
59998;SDS011;45859;51.378;6.736;2023-04-25T10:21:36;4.17;;;1.20;;
59998;SDS011;45859;51.378;6.736;2023-04-25T10:24:10;4.43;;;1.23;;
59998;SDS011;45859;51.378;6.736;2023-04-25T10:26:36;6.87;;;1.80;;
59998;SDS011;45859;51.378;6.736;2023-04-25T10:29:04;5.63;;;1.50;;
59998;SDS011;45859;51.378;6.736;2023-04-25T10:31:30;3.47;;;1.27;;
59998;SDS011;45859;51.378;6.736;2023-04-25T10:33:56;6.43;;;1.57;;
59998;SDS011;45859;51.378;6.736;2023-04-25T10:36:22;5.93;;;1.40;;
59998;SDS011;45859;51.378;6.736;2023-04-25T10:38:50;5.53;;;1.63;;
59998;SDS011;45859;51.378;6.736;2023-04-25T10:41:19;6.83;;;1.57;;
59998;SDS011;45859;51.378;6.736;2023-04-25T10:43:46;6.75;;;1.58;;
59998;SDS011;45859;51.378;6.736;2023-04-25T10:46:21;6.37;;;1.47;;
59998;SDS011;45859;51.378;6.736;2023-04-25T10:48:52;4.47;;;1.47;;
59998;SDS011;45859;51.378;6.736;2023-04-25T10:56:20;5.77;;;2.33;;
59998;SDS011;45859;51.378;6.736;2023-04-25T10:59:02;6.13;;;1.63;;
59998;SDS011;45859;51.378;6.736;2023-04-25T11:01:28;4.63;;;1.30;;
59998;SDS011;45859;51.378;6.736;2023-04-25T11:09:47;5.80;;;2.00;;
59998;SDS011;45859;51.378;6.736;2023-04-25T11:12:14;5.70;;;1.53;;
59998;SDS011;45859;51.378;6.736;2023-04-25T11:14:41;9.33;;;2.23;;
59998;SDS011;45859;51.378;6.736;2023-04-25T11:17:07;10.97;;;3.57;;
59998;SDS011;45859;51.378;6.736;2023-04-25T11:19:33;15.20;;;5.73;;
59998;SDS011;45859;51.378;6.736;2023-04-25T11:22:00;12.60;;;4.90;;
59998;SDS011;45859;51.378;6.736;2023-04-25T11:24:27;6.83;;;2.70;;
59998;SDS011;45859;51.378;6.736;2023-04-25T11:26:52;10.73;;;4.00;;
59998;SDS011;45859;51.378;6.736;2023-04-25T11:29:21;11.57;;;2.60;;
59998;SDS011;45859;51.378;6.736;2023-04-25T11:31:48;10.17;;;3.97;;
59998;SDS011;45859;51.378;6.736;2023-04-25T11:34:20;12.10;;;4.03;;
59998;SDS011;45859;51.378;6.736;2023-04-25T11:36:46;9.07;;;3.60;;
59998;SDS011;45859;51.378;6.736;2023-04-25T11:39:11;15.60;;;5.50;;
59998;SDS011;45859;51.378;6.736;2023-04-25T11:41:38;15.20;;;5.73;;
59998;SDS011;45859;51.378;6.736;2023-04-25T11:44:05;9.80;;;4.03;;
59998;SDS011;45859;51.378;6.736;2023-04-25T11:46:33;12.13;;;3.73;;
59998;SDS011;45859;51.378;6.736;2023-04-25T11:49:00;10.47;;;3.77;;
59998;SDS011;45859;51.378;6.736;2023-04-25T11:51:25;8.33;;;3.20;;
59998;SDS011;45859;51.378;6.736;2023-04-25T11:53:52;4.40;;;1.70;;
59998;SDS011;45859;51.378;6.736;2023-04-25T11:56:17;7.03;;;3.73;;
59998;SDS011;45859;51.378;6.736;2023-04-25T11:58:56;4.70;;;1.43;;
59998;SDS011;45859;51.378;6.736;2023-04-25T12:03:56;4.50;;;1.17;;
59998;SDS011;45859;51.378;6.736;2023-04-25T12:06:26;6.40;;;1.17;;
59998;SDS011;45859;51.378;6.736;2023-04-25T12:09:02;6.77;;;2.77;;
59998;SDS011;45859;51.378;6.736;2023-04-25T12:11:32;2.87;;;1.40;;
59998;SDS011;45859;51.378;6.736;2023-04-25T12:14:05;2.97;;;1.30;;
59998;SDS011;45859;51.378;6.736;2023-04-25T12:16:44;6.13;;;2.67;;
59998;SDS011;45859;51.378;6.736;2023-04-25T12:19:14;4.87;;;1.17;;
59998;SDS011;45859;51.378;6.736;2023-04-25T12:21:41;1.67;;;1.02;;
59998;SDS011;45859;51.378;6.736;2023-04-25T12:24:25;6.67;;;2.30;;
59998;SDS011;45859;51.378;6.736;2023-04-25T12:27:02;6.07;;;2.40;;
59998;SDS011;45859;51.378;6.736;2023-04-25T12:29:31;1.83;;;1.00;;
59998;SDS011;45859;51.378;6.736;2023-04-25T12:31:58;1.87;;;1.00;;
59998;SDS011;45859;51.378;6.736;2023-04-25T12:34:24;1.10;;;0.50;;
59998;SDS011;45859;51.378;6.736;2023-04-25T12:36:51;7.33;;;2.00;;
59998;SDS011;45859;51.378;6.736;2023-04-25T12:39:18;5.27;;;2.03;;
59998;SDS011;45859;51.378;6.736;2023-04-25T12:41:47;5.93;;;2.00;;
59998;SDS011;45859;51.378;6.736;2023-04-25T12:44:13;7.60;;;2.00;;
59998;SDS011;45859;51.378;6.736;2023-04-25T12:46:39;5.20;;;1.90;;
59998;SDS011;45859;51.378;6.736;2023-04-25T12:49:05;5.97;;;1.80;;
59998;SDS011;45859;51.378;6.736;2023-04-25T12:51:33;6.20;;;2.03;;
59998;SDS011;45859;51.378;6.736;2023-04-25T12:53:59;6.43;;;1.87;;
59998;SDS011;45859;51.378;6.736;2023-04-25T12:56:26;5.90;;;2.00;;
59998;SDS011;45859;51.378;6.736;2023-04-25T12:58:52;4.90;;;1.67;;
59998;SDS011;45859;51.378;6.736;2023-04-25T13:01:19;4.83;;;2.03;;
59998;SDS011;45859;51.378;6.736;2023-04-25T13:03:45;7.03;;;1.97;;
59998;SDS011;45859;51.378;6.736;2023-04-25T13:06:12;7.10;;;2.30;;
59998;SDS011;45859;51.378;6.736;2023-04-25T13:08:38;9.67;;;2.70;;
59998;SDS011;45859;51.378;6.736;2023-04-25T13:11:05;6.47;;;2.07;;
59998;SDS011;45859;51.378;6.736;2023-04-25T13:13:31;8.03;;;2.57;;
59998;SDS011;45859;51.378;6.736;2023-04-25T13:15:57;4.90;;;2.00;;
59998;SDS011;45859;51.378;6.736;2023-04-25T13:18:23;7.27;;;1.80;;
59998;SDS011;45859;51.378;6.736;2023-04-25T13:20:52;7.47;;;2.20;;
59998;SDS011;45859;51.378;6.736;2023-04-25T13:23:18;8.27;;;2.53;;
59998;SDS011;45859;51.378;6.736;2023-04-25T13:25:45;5.73;;;2.10;;
59998;SDS011;45859;51.378;6.736;2023-04-25T13:28:11;4.80;;;1.03;;
59998;SDS011;45859;51.378;6.736;2023-04-25T13:30:37;10.30;;;2.63;;
59998;SDS011;45859;51.378;6.736;2023-04-25T13:33:03;7.77;;;2.33;;
59998;SDS011;45859;51.378;6.736;2023-04-25T13:35:29;10.20;;;1.40;;
59998;SDS011;45859;51.378;6.736;2023-04-25T13:37:56;4.60;;;0.70;;
59998;SDS011;45859;51.378;6.736;2023-04-25T13:40:21;1.57;;;0.93;;
59998;SDS011;45859;51.378;6.736;2023-04-25T13:42:47;4.17;;;0.77;;
59998;SDS011;45859;51.378;6.736;2023-04-25T13:45:13;4.10;;;1.40;;
59998;SDS011;45859;51.378;6.736;2023-04-25T13:47:39;2.30;;;0.77;;
59998;SDS011;45859;51.378;6.736;2023-04-25T13:50:05;7.20;;;0.90;;
59998;SDS011;45859;51.378;6.736;2023-04-25T13:52:32;4.40;;;1.97;;
59998;SDS011;45859;51.378;6.736;2023-04-25T13:54:58;6.40;;;1.50;;
59998;SDS011;45859;51.378;6.736;2023-04-25T13:57:24;6.77;;;1.97;;
59998;SDS011;45859;51.378;6.736;2023-04-25T13:59:50;5.70;;;1.83;;
59998;SDS011;45859;51.378;6.736;2023-04-25T14:02:16;3.83;;;1.30;;
59998;SDS011;45859;51.378;6.736;2023-04-25T14:04:43;6.23;;;1.43;;
59998;SDS011;45859;51.378;6.736;2023-04-25T14:07:08;4.40;;;1.30;;
59998;SDS011;45859;51.378;6.736;2023-04-25T14:09:35;4.10;;;1.27;;
59998;SDS011;45859;51.378;6.736;2023-04-25T14:12:01;4.23;;;1.57;;
59998;SDS011;45859;51.378;6.736;2023-04-25T14:14:27;5.17;;;1.40;;
59998;SDS011;45859;51.378;6.736;2023-04-25T14:16:53;4.17;;;1.70;;
59998;SDS011;45859;51.378;6.736;2023-04-25T14:19:22;4.73;;;1.43;;
59998;SDS011;45859;51.378;6.736;2023-04-25T14:21:48;2.93;;;1.20;;
59998;SDS011;45859;51.378;6.736;2023-04-25T14:24:15;3.33;;;1.23;;
59998;SDS011;45859;51.378;6.736;2023-04-25T14:26:41;3.77;;;1.10;;
59998;SDS011;45859;51.378;6.736;2023-04-25T14:29:07;3.60;;;1.10;;
59998;SDS011;45859;51.378;6.736;2023-04-25T14:31:34;3.57;;;1.10;;
59998;SDS011;45859;51.378;6.736;2023-04-25T14:34:01;5.67;;;1.77;;
59998;SDS011;45859;51.378;6.736;2023-04-25T14:36:30;3.40;;;1.07;;
59998;SDS011;45859;51.378;6.736;2023-04-25T14:38:57;2.15;;;0.70;;
59998;SDS011;45859;51.378;6.736;2023-04-25T14:41:23;3.00;;;1.30;;
59998;SDS011;45859;51.378;6.736;2023-04-25T14:43:49;4.27;;;1.30;;
59998;SDS011;45859;51.378;6.736;2023-04-25T14:46:15;4.60;;;1.40;;
59998;SDS011;45859;51.378;6.736;2023-04-25T14:48:41;3.50;;;1.10;;
59998;SDS011;45859;51.378;6.736;2023-04-25T14:51:07;3.47;;;1.07;;
59998;SDS011;45859;51.378;6.736;2023-04-25T14:53:33;6.67;;;1.37;;
59998;SDS011;45859;51.378;6.736;2023-04-25T14:55:59;5.10;;;1.70;;
59998;SDS011;45859;51.378;6.736;2023-04-25T14:58:24;3.50;;;1.10;;
59998;SDS011;45859;51.378;6.736;2023-04-25T15:00:50;5.63;;;1.27;;
59998;SDS011;45859;51.378;6.736;2023-04-25T15:03:16;6.67;;;1.53;;
59998;SDS011;45859;51.378;6.736;2023-04-25T15:05:43;3.50;;;1.80;;